Time;durP1;ratioP1;P1;durP2;ratioP2;P2;SDS_P1;SDS_P2;PMS_P1;PMS_P2;Temp;Humidity;BMP_temperature;BMP_pressure;BME280_temperature;BME280_humidity;BME280_pressure;Samples;Min_cycle;Max_cycle;Signal;HPM_P1;HPM_P2
2022/06/22 05:17:46;;;;;;;;;;;;;;;17.16;61.93;99818.31;5014039;28;1308;-96
2022/06/22 05:23:21;;;;;;;;;;;;;;;17.15;62.07;99820.25;5013431;28;1223;-96
2022/06/22 05:25:51;;;;;;;;;;;;;;;17.15;61.97;99824.88;5011963;28;997;-96
2022/06/22 05:28:22;;;;;;;;;;;;;;;17.14;61.81;99828.66;5028405;28;885;-96
2022/06/22 05:31:06;;;;;;;;;;;;;;;17.13;61.88;99830.56;5028604;28;1255;-96
2022/06/22 05:33:36;;;;;;;;;;;;;;;17.14;61.92;99834.91;4993028;28;1454;-96
2022/06/22 05:36:08;;;;;;;;;;;;;;;17.13;61.90;99840.66;4991125;28;1583;-96
2022/06/22 05:38:37;;;;;;;;;;;;;;;17.13;61.83;99841.47;5009313;28;1207;-96
2022/06/22 05:41:07;;;;;;;;;;;;;;;17.13;61.96;99840.66;5026898;28;1977;-96
2022/06/22 05:43:35;;;;;;;;;;;;;;;17.13;61.84;99841.47;5008111;28;1244;-96
2022/06/22 05:46:03;;;;;;;;;;;;;;;17.13;61.81;99836.03;5009925;28;1422;-96
2022/06/22 05:48:32;;;;;;;;;;;;;;;17.14;62.05;99836.81;5006389;28;2111;-96
2022/06/22 05:51:00;;;;;;;;;;;;;;;17.14;61.87;99839.53;5008682;28;1540;-96
2022/06/22 05:53:28;;;;;;;;;;;;;;;17.14;61.92;99839.53;5028582;28;1616;-96
2022/06/22 05:55:55;;;;;;;;;;;;;;;17.13;61.66;99841.47;5030092;28;1236;-96
2022/06/22 05:58:24;;;;;;;;;;;;;;;17.13;61.74;99846.91;5027629;28;1270;-96
2022/06/22 06:00:52;;;;;;;;;;;;;;;17.13;61.81;99843.38;5029274;28;1887;-96
2022/06/22 06:03:23;;;;;;;;;;;;;;;17.13;61.85;99846.91;5026061;28;1388;-96
2022/06/22 06:05:52;;;;;;;;;;;;;;;17.13;61.73;99844.19;5025544;28;1363;-96
2022/06/22 06:08:19;;;;;;;;;;;;;;;17.14;61.89;99842.28;5036750;28;1780;-96
2022/06/22 06:10:46;;;;;;;;;;;;;;;17.14;61.86;99850.44;5064645;28;1389;-96
2022/06/22 06:13:16;;;;;;;;;;;;;;;17.13;61.67;99846.09;5064454;28;1183;-96
2022/06/22 06:15:44;;;;;;;;;;;;;;;17.14;61.78;99845.00;5062546;28;1499;-96
2022/06/22 06:18:13;;;;;;;;;;;;;;;17.14;61.67;99850.44;5051543;28;1329;-96
2022/06/22 06:20:40;;;;;;;;;;;;;;;17.14;61.72;99864.84;5048567;28;1914;-96
2022/06/22 06:23:07;;;;;;;;;;;;;;;17.14;61.66;99862.13;5061179;28;1990;-96
2022/06/22 06:28:27;;;;;;;;;;;;;;;17.13;61.70;99865.94;5013036;28;1341;-96
2022/06/22 06:30:53;;;;;;;;;;;;;;;17.14;61.75;99861.31;5058309;28;1309;-96
2022/06/22 06:33:20;;;;;;;;;;;;;;;17.14;61.72;99867.56;5060002;28;1201;-96
2022/06/22 06:35:47;;;;;;;;;;;;;;;17.14;61.62;99864.03;5060203;28;1483;-96
2022/06/22 06:38:14;;;;;;;;;;;;;;;17.13;61.67;99860.50;5060751;28;1354;-96
2022/06/22 06:40:41;;;;;;;;;;;;;;;17.14;61.51;99870.28;5053941;28;1906;-96
2022/06/22 06:43:09;;;;;;;;;;;;;;;17.14;61.80;99864.84;5052163;28;1373;-96
2022/06/22 06:45:35;;;;;;;;;;;;;;;17.14;61.74;99862.13;5057134;28;1548;-96
2022/06/22 06:48:10;;;;;;;;;;;;;;;17.14;61.55;99862.13;5049775;28;2855;-96
2022/06/22 06:50:38;;;;;;;;;;;;;;;17.14;61.65;99853.16;5059034;28;2824;-96
2022/06/22 06:53:05;;;;;;;;;;;;;;;17.15;61.65;99860.25;5054343;28;1373;-96
2022/06/22 06:55:34;;;;;;;;;;;;;;;17.14;61.63;99861.31;5059749;28;3107;-96
2022/06/22 07:00:56;;;;;;;;;;;;;;;17.14;61.68;99851.25;5064014;28;1891;-96
2022/06/22 07:03:27;;;;;;;;;;;;;;;17.15;61.54;99847.44;5073518;28;1302;-96
2022/06/22 07:06:00;;;;;;;;;;;;;;;17.14;61.61;99856.69;5055232;28;1072;-96
2022/06/22 07:08:36;;;;;;;;;;;;;;;17.15;61.73;99858.31;5065398;28;2063;-96
2022/06/22 07:11:04;;;;;;;;;;;;;;;17.15;61.46;99860.25;5069548;28;1424;-96
2022/06/22 07:16:14;;;;;;;;;;;;;;;17.15;61.59;99863.78;5067806;28;1347;-96
2022/06/22 07:18:43;;;;;;;;;;;;;;;17.15;61.62;99858.31;5066236;28;1718;-96
2022/06/22 07:21:10;;;;;;;;;;;;;;;17.16;61.67;99859.94;5065669;28;1906;-96
2022/06/22 07:23:37;;;;;;;;;;;;;;;17.16;61.72;99865.38;5061750;28;2412;-96
2022/06/22 07:26:03;;;;;;;;;;;;;;;17.16;61.68;99859.94;5054421;28;2309;-96
2022/06/22 07:28:30;;;;;;;;;;;;;;;17.16;61.59;99862.66;5053455;28;2066;-96
2022/06/22 07:30:56;;;;;;;;;;;;;;;17.16;61.41;99854.50;5041787;28;2526;-96
2022/06/22 07:33:23;;;;;;;;;;;;;;;17.18;61.62;99856.97;5042838;28;3163;-95
2022/06/22 07:35:49;;;;;;;;;;;;;;;17.16;61.60;99851.78;5051184;28;1207;-95
2022/06/22 07:38:16;;;;;;;;;;;;;;;17.17;61.67;99845.22;5050918;28;2257;-96
2022/06/22 07:41:18;;;;;;;;;;;;;;;17.17;61.48;99850.69;5050877;28;2491;-95
2022/06/22 07:43:29;;;;;;;;;;;;;;;17.17;61.61;99856.13;5067178;28;3418;-95
2022/06/22 07:45:56;;;;;;;;;;;;;;;17.19;61.44;99853.13;5050574;28;4012;-95
2022/06/22 07:48:22;;;;;;;;;;;;;;;17.18;61.43;99852.31;5037720;28;5501;-95
2022/06/22 07:50:49;;;;;;;;;;;;;;;17.19;61.26;99853.13;5045760;28;3231;-95
2022/06/22 07:53:17;;;;;;;;;;;;;;;17.18;61.53;99843.34;5034501;28;2849;-96
2022/06/22 07:55:43;;;;;;;;;;;;;;;17.19;61.41;99843.06;5053619;28;4028;-96
2022/06/22 07:58:11;;;;;;;;;;;;;;;17.20;61.68;99844.69;5050872;28;3998;-96
2022/06/22 08:00:38;;;;;;;;;;;;;;;17.19;61.39;99843.06;5053930;28;1987;-96
2022/06/22 08:03:04;;;;;;;;;;;;;;;17.20;61.45;99850.13;5050485;28;3986;-95
2022/06/22 08:05:31;;;;;;;;;;;;;;;17.20;61.44;99843.88;5054084;28;1707;-96
2022/06/22 08:07:57;;;;;;;;;;;;;;;17.21;61.56;99842.78;5052672;28;2274;-96
2022/06/22 08:10:24;;;;;;;;;;;;;;;17.21;61.50;99834.63;5050705;28;2032;-96
2022/06/22 08:12:53;;;;;;;;;;;;;;;17.21;61.54;99840.88;5054671;28;1883;-95
2022/06/22 08:15:19;;;;;;;;;;;;;;;17.21;61.54;99829.19;5046840;28;3921;-96
2022/06/22 08:17:46;;;;;;;;;;;;;;;17.21;61.63;99827.28;5043154;28;2203;-95
2022/06/22 08:20:13;;;;;;;;;;;;;;;17.21;61.53;99819.13;5051391;28;3341;-96
2022/06/22 08:22:39;;;;;;;;;;;;;;;17.23;61.50;99826.97;5052657;28;2013;-96
2022/06/22 08:25:06;;;;;;;;;;;;;;;17.24;61.48;99824.00;5053757;28;1181;-96
2022/06/22 08:27:32;;;;;;;;;;;;;;;17.24;61.60;99828.63;5052767;28;2090;-96
2022/06/22 08:29:59;;;;;;;;;;;;;;;17.24;61.45;99821.28;5054150;28;1180;-96
2022/06/22 08:32:25;;;;;;;;;;;;;;;17.25;61.61;99828.31;5040793;28;3960;-96
2022/06/22 08:34:52;;;;;;;;;;;;;;;17.26;61.72;99829.13;5053928;28;1220;-96
2022/06/22 08:37:19;;;;;;;;;;;;;;;17.27;61.77;99827.25;5048480;28;2279;-96
2022/06/22 08:39:47;;;;;;;;;;;;;;;17.27;61.71;99829.97;5039581;28;2011;-96
2022/06/22 08:42:15;;;;;;;;;;;;;;;17.27;61.58;99829.97;5042786;28;2475;-96
2022/06/22 08:44:41;;;;;;;;;;;;;;;17.27;61.48;99830.78;5047170;28;2058;-96
2022/06/22 08:47:08;;;;;;;;;;;;;;;17.28;61.73;99832.41;5057680;28;1210;-96
2022/06/22 08:49:36;;;;;;;;;;;;;;;17.29;61.50;99834.00;5055504;28;2014;-96
2022/06/22 08:52:02;;;;;;;;;;;;;;;17.29;61.92;99838.66;5052196;28;3900;-93
2022/06/22 08:54:29;;;;;;;;;;;;;;;17.30;61.48;99832.13;5051005;28;1901;-94
2022/06/22 08:56:56;;;;;;;;;;;;;;;17.30;61.73;99832.13;5051518;28;1948;-96
2022/06/22 08:59:23;;;;;;;;;;;;;;;17.31;61.58;99837.28;5057910;28;2405;-96
2022/06/22 09:01:50;;;;;;;;;;;;;;;17.32;61.53;99838.09;5058016;28;1977;-94
2022/06/22 09:04:16;;;;;;;;;;;;;;;17.31;61.48;99834.56;5038043;28;3949;-95
2022/06/22 09:06:42;;;;;;;;;;;;;;;17.32;61.74;99830.72;5042420;28;1156;-95
2022/06/22 09:09:09;;;;;;;;;;;;;;;17.33;61.60;99834.28;5055324;28;3918;-94
2022/06/22 09:11:36;;;;;;;;;;;;;;;17.33;61.47;99832.38;5056588;28;1179;-95
2022/06/22 09:14:04;;;;;;;;;;;;;;;17.34;61.69;99838.63;5050938;28;4018;-95
2022/06/22 09:16:31;;;;;;;;;;;;;;;17.34;61.73;99836.72;5036775;28;3820;-94
2022/06/22 09:18:58;;;;;;;;;;;;;;;17.35;61.64;99821.19;5051055;28;1244;-95
2022/06/22 09:21:24;;;;;;;;;;;;;;;17.35;61.63;99827.44;5055091;28;4167;-95
2022/06/22 09:23:51;;;;;;;;;;;;;;;17.36;61.64;99831.00;5056838;28;1223;-96
2022/06/22 09:26:17;;;;;;;;;;;;;;;17.37;61.61;99841.59;5056397;28;2387;-95
2022/06/22 09:28:44;;;;;;;;;;;;;;;17.38;61.70;99845.13;5042508;28;3767;-95
2022/06/22 09:31:10;;;;;;;;;;;;;;;17.38;61.75;99845.13;5056688;28;1162;-95
2022/06/22 09:33:37;;;;;;;;;;;;;;;17.39;61.86;99846.75;5054907;28;3731;-96
2022/06/22 09:36:04;;;;;;;;;;;;;;;17.39;61.87;99852.22;5055062;28;1240;-95
2022/06/22 09:38:31;;;;;;;;;;;;;;;17.39;61.94;99855.75;5053709;28;3746;-95
2022/06/22 09:40:57;;;;;;;;;;;;;;;17.41;61.84;99853.56;5056249;28;1973;-95
2022/06/22 09:43:24;;;;;;;;;;;;;;;17.43;62.07;99853.25;5036710;28;3756;-95
2022/06/22 09:45:50;;;;;;;;;;;;;;;17.42;62.09;99843.47;5041445;28;1994;-95
2022/06/22 09:48:17;;;;;;;;;;;;;;;17.43;61.85;99845.09;5036842;28;2492;-95
2022/06/22 09:50:44;;;;;;;;;;;;;;;17.44;61.90;99844.00;5039774;28;3999;-95
2022/06/22 09:53:11;;;;;;;;;;;;;;;17.44;61.72;99841.25;5057104;28;1155;-96
2022/06/22 09:58:22;;;;;;;;;;;;;;;17.47;61.88;99846.16;5052073;28;3861;-95
2022/06/22 10:00:49;;;;;;;;;;;;;;;17.47;61.91;99849.72;5056229;28;1973;-94
2022/06/22 10:03:16;;;;;;;;;;;;;;;17.47;61.87;99855.16;5053548;28;4214;-95
2022/06/22 10:05:43;;;;;;;;;;;;;;;17.48;61.90;99854.03;5055892;28;1192;-94
2022/06/22 10:08:09;;;;;;;;;;;;;;;17.50;62.04;99853.78;5053414;28;3916;-94
2022/06/22 10:10:36;;;;;;;;;;;;;;;17.50;62.12;99851.06;5052696;28;4054;-94
2022/06/22 10:13:02;;;;;;;;;;;;;;;17.51;62.04;99852.66;5051889;28;4404;-94
2022/06/22 10:15:29;;;;;;;;;;;;;;;17.51;62.07;99860.84;5049052;28;4030;-95
2022/06/22 10:17:56;;;;;;;;;;;;;;;17.53;62.00;99861.38;5035953;28;1276;-94
2022/06/22 10:20:30;;;;;;;;;;;;;;;17.54;62.00;99862.19;5057029;28;3260;-96
2022/06/22 10:22:57;;;;;;;;;;;;;;;17.54;62.13;99857.53;5060134;28;2174;-96
2022/06/22 10:25:24;;;;;;;;;;;;;;;17.54;62.11;99860.28;5057257;28;1354;-96
2022/06/22 10:27:51;;;;;;;;;;;;;;;17.56;62.29;99857.25;5058713;28;1925;-96
2022/06/22 10:30:17;;;;;;;;;;;;;;;17.56;62.24;99852.63;5064008;28;1449;-96
2022/06/22 10:32:45;;;;;;;;;;;;;;;17.57;62.00;99854.25;5063251;28;1396;-96
2022/06/22 10:35:13;;;;;;;;;;;;;;;17.57;62.30;99854.25;5071952;28;1226;-96
2022/06/22 10:37:41;;;;;;;;;;;;;;;17.58;62.26;99853.16;5058153;28;1553;-94
2022/06/22 10:40:07;;;;;;;;;;;;;;;17.60;62.19;99861.84;5050570;28;2269;-96
2022/06/22 10:45:20;;;;;;;;;;;;;;;17.60;62.20;99845.53;5053889;28;1880;-96
2022/06/22 10:47:47;;;;;;;;;;;;;;;17.62;62.11;99850.69;5055089;28;1966;-95
2022/06/22 10:50:13;;;;;;;;;;;;;;;17.62;62.40;99846.06;5053439;28;1324;-96
2022/06/22 10:52:40;;;;;;;;;;;;;;;17.63;62.12;99846.88;5054341;28;1972;-96
2022/06/22 10:55:07;;;;;;;;;;;;;;;17.64;62.25;99846.56;5056028;28;1377;-96
2022/06/22 10:57:34;;;;;;;;;;;;;;;17.65;62.08;99855.56;5053869;28;3988;-95
2022/06/22 11:00:02;;;;;;;;;;;;;;;17.66;62.12;99851.75;5050513;28;2361;-92
2022/06/22 11:02:29;;;;;;;;;;;;;;;17.66;62.21;99859.91;5048162;28;3972;-93
2022/06/22 11:04:55;;;;;;;;;;;;;;;17.67;62.29;99862.34;5052293;28;1907;-93
2022/06/22 11:07:22;;;;;;;;;;;;;;;17.68;62.45;99858.53;5038371;28;4271;-93
2022/06/22 11:09:49;;;;;;;;;;;;;;;17.68;62.17;99855.00;5036726;28;4263;-94
2022/06/22 11:12:15;;;;;;;;;;;;;;;17.70;62.37;99852.78;5053630;28;2203;-94
2022/06/22 11:14:42;;;;;;;;;;;;;;;17.70;62.27;99859.03;5049112;28;3944;-94
2022/06/22 11:17:09;;;;;;;;;;;;;;;17.73;62.35;99854.13;5036507;28;2608;-94
2022/06/22 11:19:38;;;;;;;;;;;;;;;17.70;62.29;99856.31;5065673;28;2752;-96
2022/06/22 11:22:04;;;;;;;;;;;;;;;17.74;62.53;99853.06;5051747;28;2463;-96
2022/06/22 11:32:40;;;;;;;;;;;;;;;17.76;62.54;99829.88;5040542;28;2415;-94
2022/06/22 11:35:08;;;;;;;;;;;;;;;17.78;62.40;99827.72;5047590;28;3928;-94
2022/06/22 11:37:35;;;;;;;;;;;;;;;17.79;62.43;99834.78;5049935;28;3824;-93
2022/06/22 11:40:02;;;;;;;;;;;;;;;17.79;62.71;99836.69;5045068;28;3881;-94
2022/06/22 12:09:45;;;;;;;;;;;;;;;17.86;62.55;99840.72;5271844;23;2319;-96
2022/06/22 12:12:12;;;;;;;;;;;;;;;17.87;62.74;99839.63;4971110;28;1375;-96
2022/06/22 12:17:23;;;;;;;;;;;;;;;17.87;63.11;99834.16;4976775;28;2226;-96
2022/06/22 12:19:50;;;;;;;;;;;;;;;17.88;63.18;99815.91;4980369;28;1316;-96
2022/06/22 12:22:17;;;;;;;;;;;;;;;17.89;63.07;99820.28;4984176;28;1918;-96
2022/06/22 12:33:38;;;;;;;;;;;;;;;17.96;62.82;99806.31;4993913;28;893;-96
2022/06/22 12:36:07;;;;;;;;;;;;;;;17.95;62.66;99799.25;4975293;28;1171;-96
2022/06/22 12:38:36;;;;;;;;;;;;;;;17.95;62.89;99805.50;4974819;28;1730;-96
2022/06/22 12:41:05;;;;;;;;;;;;;;;17.97;63.15;99810.66;4992451;28;1887;-96
2022/06/22 12:43:35;;;;;;;;;;;;;;;17.97;63.00;99810.66;4995047;28;1457;-96
2022/06/22 12:46:09;;;;;;;;;;;;;;;17.97;63.16;99811.50;5006815;28;1313;-96
2022/06/22 12:51:17;;;;;;;;;;;;;;;18.00;62.93;99807.34;5001703;28;1600;-96
2022/06/22 12:53:47;;;;;;;;;;;;;;;18.01;63.09;99800.84;4992053;28;1532;-96
2022/06/22 12:56:15;;;;;;;;;;;;;;;18.02;62.88;99811.44;4997901;28;1543;-96
2022/06/22 12:58:43;;;;;;;;;;;;;;;18.03;63.01;99798.63;5001625;28;1458;-96
2022/06/22 14:28:50;;;;;;;;;;;;;;;18.43;63.60;99815.66;5077119;28;1312;-96
2022/06/22 17:12:23;;;;;;;;;;;;;;;18.83;64.29;99817.94;6126950;23;1544;31
2022/06/22 17:46:23;;;;;;;;;;;;;;;18.84;64.05;99819.53;5058844;28;1089;-96
2022/06/22 17:49:17;;;;;;;;;;;;;;;18.83;63.95;99815.22;5058844;28;604;-96
2022/06/22 18:13:41;;;;;;;;;;;;;;;18.83;63.94;99795.31;4959514;29;1281;-96
2022/06/22 18:22:41;;;;;;;;;;;;;;;18.82;64.19;99808.13;4999124;28;1879;-96
2022/06/22 18:37:57;;;;;;;;;;;;;;;18.83;63.87;99808.94;4973689;28;1021;-96
2022/06/22 18:58:59;;;;;;;;;;;;;;;18.78;63.90;99823.44;5805288;23;1523;-96
2022/06/22 19:04:49;;;;;;;;;;;;;;;18.77;63.94;99823.75;5008229;28;3317;-96
2022/06/22 19:07:25;;;;;;;;;;;;;;;18.77;64.01;99821.84;5022748;28;2362;-96
2022/06/22 19:09:52;;;;;;;;;;;;;;;18.77;63.94;99816.38;5026769;28;1834;-96
2022/06/22 19:12:23;;;;;;;;;;;;;;;18.76;63.98;99816.66;4996998;28;1903;-96
2022/06/22 19:14:51;;;;;;;;;;;;;;;18.76;64.08;99816.66;4984510;28;1483;-96
2022/06/22 19:17:20;;;;;;;;;;;;;;;18.76;64.21;99817.47;5024237;28;1260;-96
2022/06/22 19:20:01;;;;;;;;;;;;;;;18.75;64.05;99813.13;4994219;28;1968;-96
2022/06/22 19:22:29;;;;;;;;;;;;;;;18.76;64.06;99822.09;4973415;28;5143;-96
2022/06/22 19:24:57;;;;;;;;;;;;;;;18.75;64.01;99834.13;4997096;28;1927;-96
2022/06/22 19:27:29;;;;;;;;;;;;;;;18.74;64.13;99825.16;5007047;28;1594;-96
2022/06/22 19:30:01;;;;;;;;;;;;;;;18.74;63.94;99837.97;4989741;28;1245;-96
2022/06/22 19:35:10;;;;;;;;;;;;;;;18.73;63.73;99837.13;5001593;28;1792;-96
2022/06/22 19:37:39;;;;;;;;;;;;;;;18.73;63.99;99842.59;4995275;28;1546;-96
2022/06/22 19:40:07;;;;;;;;;;;;;;;18.72;64.15;99842.88;4991655;28;1394;-96
2022/06/22 19:48:16;;;;;;;;;;;;;;;18.70;64.28;99845.88;5173232;23;2388;-95
2022/06/22 19:54:01;;;;;;;;;;;;;;;18.71;64.10;99858.44;5083140;28;885;-96
2022/06/22 19:56:58;;;;;;;;;;;;;;;18.65;64.37;99856.88;5094945;28;604;-96
2022/06/22 20:05:39;;;;;;;;;;;;;;;18.67;64.35;99872.91;6009845;23;1653;-96
2022/06/22 20:13:55;;;;;;;;;;;;;;;18.65;64.20;99867.78;5052568;28;1277;-96
2022/06/22 20:22:32;;;;;;;;;;;;;;;18.64;63.98;99866.13;5030943;28;1962;-96
2022/06/22 20:42:41;;;;;;;;;;;;;;;18.58;63.70;99884.47;5081465;28;1874;-96
2022/06/22 20:54:36;;;;;;;;;;;;;;;18.32;66.05;99877.63;5049396;28;1274;-96
2022/06/22 21:44:01;;;;;;;;;;;;;;;18.46;63.72;99886.78;5074425;28;1910;-96
2022/06/22 21:46:58;;;;;;;;;;;;;;;18.46;63.95;99880.50;5077702;28;675;-96
2022/06/22 21:49:55;;;;;;;;;;;;;;;18.47;63.73;99893.03;5075478;28;1335;-96
2022/06/22 22:02:17;;;;;;;;;;;;;;;18.43;63.92;99898.25;5075860;28;1879;-96
2022/06/22 22:11:31;;;;;;;;;;;;;;;18.41;63.85;99886.81;5056938;28;1216;-96
2022/06/22 22:14:24;;;;;;;;;;;;;;;18.41;63.64;99875.09;5055896;28;629;-96
2022/06/22 22:16:55;;;;;;;;;;;;;;;18.39;63.45;99873.47;5041241;28;1358;-96
2022/06/22 22:19:26;;;;;;;;;;;;;;;18.39;63.80;99875.41;5037520;28;1183;-96
2022/06/22 22:22:03;;;;;;;;;;;;;;;18.39;63.87;99875.41;5038284;28;1906;-96
2022/06/22 22:24:41;;;;;;;;;;;;;;;18.38;63.60;99871.88;5019128;28;1242;-96
2022/06/22 22:27:08;;;;;;;;;;;;;;;18.38;63.77;99877.31;5017850;28;1389;-96
2022/06/22 22:29:36;;;;;;;;;;;;;;;18.37;63.88;99880.31;5017347;28;1662;-96
2022/06/22 22:32:04;;;;;;;;;;;;;;;18.37;63.56;99886.56;5018154;28;1181;-96
2022/06/22 22:34:37;;;;;;;;;;;;;;;18.36;63.70;99879.50;5019335;28;1229;-96
2022/06/22 22:37:08;;;;;;;;;;;;;;;18.35;63.51;99894.25;5016350;28;1240;-96
2022/06/22 22:42:19;;;;;;;;;;;;;;;18.34;63.61;99881.72;5030606;28;1961;-96
2022/06/22 22:44:52;;;;;;;;;;;;;;;18.34;63.72;99878.16;5016255;28;1248;-96
2022/06/22 22:47:24;;;;;;;;;;;;;;;18.34;63.50;99872.72;5031153;28;1189;-96
2022/06/22 22:49:53;;;;;;;;;;;;;;;18.34;63.34;99878.16;5035852;28;1360;-96
2022/06/22 22:55:05;;;;;;;;;;;;;;;18.32;63.35;99886.66;5052637;28;1139;-96
2022/06/22 22:57:34;;;;;;;;;;;;;;;18.31;63.45;99890.47;5035672;28;1114;-96
2022/06/22 23:00:00;;;;;;;;;;;;;;;18.30;63.65;99891.56;5031516;28;1279;-96
2022/06/22 23:02:27;;;;;;;;;;;;;;;18.30;63.63;99888.84;5030998;28;1947;-96
2022/06/22 23:04:58;;;;;;;;;;;;;;;18.30;63.43;99882.59;5015311;28;1366;-96
2022/06/22 23:07:38;;;;;;;;;;;;;;;18.29;63.64;99881.75;4998816;28;1475;-96
2022/06/22 23:10:06;;;;;;;;;;;;;;;18.29;63.25;99889.91;5014472;28;1308;-96
2022/06/22 23:12:34;;;;;;;;;;;;;;;18.28;63.50;99884.78;5015575;28;1265;-96
2022/06/22 23:15:01;;;;;;;;;;;;;;;18.27;63.54;99883.16;5015431;28;1234;-96
2022/06/22 23:17:31;;;;;;;;;;;;;;;18.27;63.75;99880.44;5015075;28;1450;-96
2022/06/22 23:20:08;;;;;;;;;;;;;;;18.26;63.45;99871.41;5014382;28;1360;-96
2022/06/22 23:22:40;;;;;;;;;;;;;;;18.26;63.34;99873.34;5016037;28;1958;-96
2022/06/22 23:30:34;;;;;;;;;;;;;;;18.23;63.54;99860.28;5033832;28;1349;-96
2022/06/22 23:35:42;;;;;;;;;;;;;;;18.22;63.59;99864.94;5051609;28;1423;-96
2022/06/22 23:38:10;;;;;;;;;;;;;;;18.22;63.42;99872.28;5033702;28;1173;-96
2022/06/22 23:40:39;;;;;;;;;;;;;;;18.21;63.29;99860.59;5051806;28;857;-96
2022/06/22 23:43:08;;;;;;;;;;;;;;;18.21;63.21;99863.31;5031960;28;1899;-96
2022/06/22 23:48:24;;;;;;;;;;;;;;;18.20;63.59;99864.38;5015324;28;1351;-96
2022/06/22 23:50:57;;;;;;;;;;;;;;;18.19;63.46;99862.78;5031548;28;1287;-96
2022/06/22 23:53:24;;;;;;;;;;;;;;;18.18;63.25;99858.44;5014273;28;1340;-96
2022/06/22 23:55:56;;;;;;;;;;;;;;;18.17;63.51;99860.31;4999431;28;1272;-96
2022/06/22 23:58:23;;;;;;;;;;;;;;;18.18;63.36;99866.63;5031164;28;1264;-96
